Time;durP1;ratioP1;P1;durP2;ratioP2;P2;SDS_P1;SDS_P2;PMS_P1;PMS_P2;Temp;Humidity;BMP_temperature;BMP_pressure;BME280_temperature;BME280_humidity;BME280_pressure;Samples;Min_cycle;Max_cycle;Signal;HPM_P1;HPM_P2
2022/01/30 02:32:26;;;;;;;8.90;8.70;;;6.50;99.90;;;;;;6008330;23;20264;-81
2022/01/30 03:17:01;;;;;;;9.50;9.20;;;6.70;99.90;;;;;;6129495;23;20195;-81
2022/01/30 03:24:57;;;;;;;;;;;;;;;;;;;;;
2022/01/30 04:36:32;;;;;;;9.67;9.37;;;6.30;99.90;;;;;;6279680;22;20194;-82
2022/01/30 05:38:46;;;;;;;9.30;9.00;;;5.90;99.90;;;;;;6142579;23;20227;-82
2022/01/30 05:42:31;;;;;;;9.10;8.83;;;5.80;99.90;;;;;;6287531;22;20190;-82
2022/01/30 05:46:37;;;;;;;8.70;8.50;;;5.80;99.90;;;;;;6261617;22;20221;-80
2022/01/30 06:25:07;;;;;;;9.47;9.17;;;5.30;99.90;;;;;;5876759;24;20206;-82
2022/01/30 08:05:58;;;;;;;9.70;9.40;;;4.80;99.90;;;;;;6177952;23;20199;-83
2022/01/30 10:20:10;;;;;;;8.83;8.63;;;5.60;99.90;;;;;;6189021;23;20206;-81
2022/01/30 11:12:03;;;;;;;9.80;9.50;;;5.40;99.90;;;;;;6231131;22;20257;-83
2022/01/30 11:26:02;;;;;;;9.30;9.00;;;5.50;99.90;;;;;;6187925;23;20238;-81
2022/01/30 11:34:50;;;;;;;9.37;9.07;;;5.50;99.90;;;;;;6323131;22;20197;-80
2022/01/30 11:47:32;;;;;;;9.47;9.17;;;5.50;99.90;;;;;;6310637;22;20200;-81
2022/01/30 11:50:13;;;;;;;9.27;8.97;;;5.70;99.90;;;;;;6352515;22;20192;-81
2022/01/30 11:53:09;;;;;;;9.50;9.20;;;5.60;99.90;;;;;;6352563;22;20192;-81
2022/01/30 11:55:56;;;;;;;9.33;9.03;;;5.50;99.90;;;;;;6354385;22;20215;-80
2022/01/30 11:58:54;;;;;;;9.43;9.13;;;5.60;99.90;;;;;;6353361;22;20200;-81
2022/01/30 12:01:38;;;;;;;9.43;9.13;;;5.70;99.90;;;;;;6352012;22;20692;-80
2022/01/30 12:04:17;;;;;;;9.40;9.10;;;5.70;99.90;;;;;;6352039;22;20204;-80
2022/01/30 12:06:50;;;;;;;9.30;9.00;;;5.70;99.90;;;;;;6352060;22;20196;-80
2022/01/30 12:09:33;;;;;;;9.50;9.20;;;5.80;99.90;;;;;;6351577;22;20184;-80
2022/01/30 12:12:08;;;;;;;9.70;9.40;;;5.90;99.90;;;;;;6351923;22;20249;-81
2022/01/30 12:14:46;;;;;;;9.50;9.20;;;6.10;99.90;;;;;;6352414;22;20212;-81
2022/01/30 12:17:16;;;;;;;9.73;9.43;;;6.00;99.90;;;;;;6353830;22;20200;-80
2022/01/30 12:20:05;;;;;;;9.40;9.10;;;6.00;99.90;;;;;;6353958;22;20206;-80
2022/01/30 12:22:42;;;;;;;9.70;9.40;;;5.90;99.90;;;;;;6357142;22;20199;-81
2022/01/30 12:25:34;;;;;;;9.70;9.40;;;5.80;99.90;;;;;;6354118;22;20192;-80
2022/01/30 12:28:21;;;;;;;9.60;9.30;;;5.70;99.90;;;;;;6351454;22;20193;-79
2022/01/30 12:30:55;;;;;;;9.90;9.60;;;5.80;99.90;;;;;;6351456;22;20192;-80
2022/01/30 12:33:51;;;;;;;9.60;9.30;;;5.80;99.90;;;;;;6352266;22;20208;-81
2022/01/30 12:36:21;;;;;;;9.70;9.40;;;5.90;99.90;;;;;;6352061;22;20196;-80
2022/01/30 12:39:00;;;;;;;9.70;9.40;;;5.90;99.90;;;;;;6351403;22;20196;-80
2022/01/30 12:41:30;;;;;;;9.90;9.60;;;5.80;99.90;;;;;;6351130;22;20188;-81
2022/01/30 12:44:01;;;;;;;9.70;9.40;;;5.80;99.90;;;;;;6351815;22;20198;-80
2022/01/30 12:46:31;;;;;;;9.43;9.13;;;5.80;99.90;;;;;;6350870;22;20204;-80
2022/01/30 12:49:13;;;;;;;9.60;9.30;;;5.70;99.90;;;;;;6351671;22;20196;-80
2022/01/30 12:51:50;;;;;;;9.80;9.50;;;5.70;99.90;;;;;;6354988;22;20192;-80
2022/01/30 12:54:21;;;;;;;9.53;9.23;;;5.70;99.90;;;;;;6354402;22;20210;-80
2022/01/30 12:56:51;;;;;;;9.80;9.50;;;5.80;99.90;;;;;;6354001;22;20236;-79
2022/01/30 12:59:23;;;;;;;9.60;9.30;;;5.80;99.90;;;;;;6351008;22;20195;-80
2022/01/30 13:01:51;;;;;;;9.77;9.47;;;5.90;99.90;;;;;;6350652;22;20200;-80
2022/01/30 13:04:27;;;;;;;9.53;9.23;;;5.80;99.90;;;;;;6351771;22;20184;-79
2022/01/30 13:06:55;;;;;;;9.73;9.43;;;5.80;99.90;;;;;;6356077;22;20207;-80
2022/01/30 13:09:25;;;;;;;9.40;9.10;;;5.80;99.90;;;;;;6350957;22;20192;-80
2022/01/30 13:11:54;;;;;;;9.40;9.10;;;5.80;99.90;;;;;;6350011;22;20208;-80
2022/01/30 13:14:23;;;;;;;9.67;9.37;;;5.70;99.90;;;;;;6349589;22;20196;-80
2022/01/30 13:16:52;;;;;;;9.47;9.17;;;5.80;99.90;;;;;;6349805;22;20238;-80
2022/01/30 13:19:33;;;;;;;9.60;9.30;;;5.80;99.90;;;;;;6349612;22;20188;-81
2022/01/30 13:22:02;;;;;;;9.43;9.13;;;5.80;99.90;;;;;;6349058;22;20192;-80
2022/01/30 13:24:31;;;;;;;9.50;9.20;;;5.70;99.90;;;;;;6349792;22;20218;-80
2022/01/30 13:27:01;;;;;;;9.30;9.00;;;5.80;99.90;;;;;;6349840;22;20262;-80
2022/01/30 13:29:31;;;;;;;9.50;9.20;;;5.80;99.90;;;;;;6351774;22;20279;-80
2022/01/30 13:31:59;;;;;;;9.63;9.33;;;5.90;99.90;;;;;;6351351;22;20255;-80
2022/01/30 13:34:31;;;;;;;9.43;9.13;;;6.00;99.90;;;;;;6349422;22;20214;-80
2022/01/30 13:37:05;;;;;;;9.80;9.50;;;5.90;99.90;;;;;;6350568;22;20205;-80
2022/01/30 13:39:45;;;;;;;9.23;8.93;;;6.00;99.90;;;;;;6351322;22;20204;-80
2022/01/30 13:42:42;;;;;;;9.50;9.20;;;6.00;99.90;;;;;;6363243;22;20230;-80
2022/01/30 13:48:15;;;;;;;9.40;9.10;;;6.70;99.90;;;;;;6360888;22;20199;-80
2022/01/30 13:50:49;;;;;;;9.60;9.30;;;7.00;99.90;;;;;;6352297;22;20280;-80
2022/01/30 13:53:26;;;;;;;9.40;9.10;;;7.10;99.90;;;;;;6350022;22;20278;-79
2022/01/30 13:55:59;;;;;;;9.80;9.50;;;7.40;99.90;;;;;;6351479;22;20188;-80
2022/01/30 13:58:30;;;;;;;9.80;9.50;;;7.80;99.90;;;;;;6352558;22;20713;-80
2022/01/30 14:00:58;;;;;;;9.60;9.30;;;7.70;99.90;;;;;;6349850;22;20262;-80
2022/01/30 14:03:28;;;;;;;9.90;9.60;;;7.10;99.90;;;;;;6352459;22;20192;-81
2022/01/30 14:05:58;;;;;;;9.47;9.17;;;7.00;99.90;;;;;;6373754;22;20196;-77
2022/01/30 14:08:27;;;;;;;9.80;9.50;;;7.00;99.90;;;;;;6373525;22;20172;-80
2022/01/30 14:11:08;;;;;;;9.40;9.10;;;6.70;99.90;;;;;;6373673;22;20177;-76
2022/01/30 14:13:41;;;;;;;9.07;8.87;;;6.60;99.90;;;;;;6371994;22;20179;-79
2022/01/30 14:16:17;;;;;;;9.43;9.13;;;6.60;99.90;;;;;;6371959;22;20183;-79
2022/01/30 14:18:55;;;;;;;9.30;9.00;;;6.50;99.90;;;;;;6366495;22;20200;-78
2022/01/30 14:21:28;;;;;;;9.50;9.20;;;6.40;99.90;;;;;;6368733;22;20186;-80
2022/01/30 14:23:56;;;;;;;9.00;8.80;;;6.20;99.90;;;;;;6370837;22;20220;-77
2022/01/30 14:26:27;;;;;;;9.27;8.97;;;6.20;99.90;;;;;;6372502;22;20201;-78
2022/01/30 14:29:09;;;;;;;9.50;9.20;;;6.00;99.90;;;;;;6371754;22;20180;-79
2022/01/30 14:31:54;;;;;;;9.20;8.90;;;5.90;99.90;;;;;;6371413;22;20250;-80
2022/01/30 14:34:22;;;;;;;9.47;9.17;;;5.80;99.90;;;;;;6370585;22;20200;-80
2022/01/30 14:36:53;;;;;;;9.33;9.03;;;5.70;99.90;;;;;;6369437;22;20196;-79
2022/01/30 14:39:21;;;;;;;9.30;9.00;;;5.60;99.90;;;;;;6370874;22;20176;-81
2022/01/30 14:41:49;;;;;;;9.40;9.10;;;5.60;99.90;;;;;;6365851;22;20255;-80
2022/01/30 14:44:18;;;;;;;9.57;9.27;;;5.60;99.90;;;;;;6359730;22;20218;-80
2022/01/30 14:46:46;;;;;;;9.00;8.80;;;5.60;99.90;;;;;;6358605;22;20210;-80
2022/01/30 14:49:14;;;;;;;9.30;9.00;;;5.70;99.90;;;;;;6355377;22;20211;-80
2022/01/30 14:51:42;;;;;;;9.40;9.10;;;5.70;99.90;;;;;;6353868;22;20192;-80
2022/01/30 14:54:12;;;;;;;9.23;9.00;;;5.70;99.90;;;;;;6353078;22;20215;-80
2022/01/30 14:56:40;;;;;;;8.93;8.73;;;5.60;99.90;;;;;;6353320;22;20738;-80
2022/01/30 14:59:07;;;;;;;9.50;9.20;;;5.60;99.90;;;;;;6353049;22;20192;-81
2022/01/30 15:01:35;;;;;;;9.30;9.00;;;5.50;99.90;;;;;;6352173;22;20189;-80
2022/01/30 15:04:03;;;;;;;9.30;9.00;;;5.50;99.90;;;;;;6352524;22;20204;-81
2022/01/30 15:06:31;;;;;;;9.43;9.13;;;5.50;99.90;;;;;;6352495;22;20200;-81
2022/01/30 15:08:59;;;;;;;9.37;9.07;;;5.50;99.90;;;;;;6362373;22;20190;-81
2022/01/30 15:11:28;;;;;;;9.40;9.10;;;5.50;99.90;;;;;;6354539;22;20632;-81
2022/01/30 15:13:56;;;;;;;9.03;8.83;;;5.50;99.90;;;;;;6353617;22;20196;-80
2022/01/30 15:16:39;;;;;;;9.40;9.10;;;5.50;99.90;;;;;;6353513;22;20211;-80
2022/01/30 15:19:07;;;;;;;9.00;8.80;;;5.50;99.90;;;;;;6352258;22;20212;-80
2022/01/30 15:21:35;;;;;;;9.10;8.90;;;5.50;99.90;;;;;;6351688;22;20219;-80
2022/01/30 15:24:03;;;;;;;9.23;8.93;;;5.50;99.90;;;;;;6351127;22;20250;-79
2022/01/30 15:26:32;;;;;;;9.30;9.00;;;5.50;99.90;;;;;;6351894;22;20209;-79
2022/01/30 15:29:00;;;;;;;9.13;8.90;;;5.40;99.90;;;;;;6351061;22;20208;-80
2022/01/30 15:31:28;;;;;;;9.27;8.97;;;5.30;99.90;;;;;;6349557;22;20254;-79
2022/01/30 15:33:57;;;;;;;9.30;9.00;;;5.10;99.90;;;;;;6349745;22;20199;-80
2022/01/30 15:36:25;;;;;;;9.10;8.90;;;5.10;99.90;;;;;;6350794;22;20219;-78
2022/01/30 15:38:53;;;;;;;9.27;8.97;;;5.10;99.90;;;;;;6351863;22;20269;-79
2022/01/30 15:41:21;;;;;;;9.30;9.00;;;5.00;99.90;;;;;;6356921;22;20207;-79
2022/01/30 15:43:51;;;;;;;9.00;8.80;;;5.10;99.90;;;;;;6362542;22;20204;-79
2022/01/30 15:49:07;;;;;;;8.83;8.63;;;5.10;99.90;;;;;;6351353;22;20173;-79
2022/01/30 15:51:40;;;;;;;8.70;8.50;;;5.10;99.90;;;;;;6349573;22;20271;-80
2022/01/30 15:54:14;;;;;;;9.00;8.80;;;5.00;99.90;;;;;;6348401;22;20298;-78
2022/01/30 15:56:45;;;;;;;8.90;8.70;;;5.00;99.90;;;;;;6346866;22;20286;-78
2022/01/30 15:59:19;;;;;;;8.93;8.73;;;5.00;99.90;;;;;;6350613;22;20195;-80
2022/01/30 16:01:47;;;;;;;9.17;8.87;;;5.00;99.90;;;;;;6350149;22;20207;-80
2022/01/30 16:04:20;;;;;;;9.40;9.10;;;5.00;99.90;;;;;;6349923;22;20227;-80
2022/01/30 16:06:51;;;;;;;9.30;9.03;;;5.00;99.90;;;;;;6350360;22;20196;-79
2022/01/30 16:09:22;;;;;;;9.43;9.13;;;4.90;99.90;;;;;;6349675;22;20203;-79
2022/01/30 16:17:30;;;;;;;9.50;9.20;;;4.80;99.90;;;;;;6349798;22;20192;-79
2022/01/30 16:19:58;;;;;;;9.60;9.30;;;4.80;99.90;;;;;;6347094;22;20342;-79
2022/01/30 16:22:25;;;;;;;9.40;9.10;;;4.80;99.90;;;;;;6348749;22;20354;-79
2022/01/30 16:24:53;;;;;;;9.30;9.00;;;4.90;99.90;;;;;;6349719;22;20204;-80
2022/01/30 16:27:21;;;;;;;9.20;8.90;;;4.90;99.90;;;;;;6348970;22;20207;-79
2022/01/30 16:29:50;;;;;;;9.37;9.07;;;4.90;99.90;;;;;;6349568;22;20246;-80
2022/01/30 16:32:18;;;;;;;9.27;8.97;;;4.90;99.90;;;;;;6349469;22;20184;-79
2022/01/30 16:34:46;;;;;;;9.00;8.80;;;4.80;99.90;;;;;;6350821;22;20223;-79
2022/01/30 16:37:14;;;;;;;9.00;8.80;;;4.80;99.90;;;;;;6349244;22;20196;-79
2022/01/30 16:39:42;;;;;;;8.70;8.50;;;4.70;99.90;;;;;;6347925;22;20192;-79
2022/01/30 16:42:09;;;;;;;8.80;8.60;;;4.70;99.90;;;;;;6347782;22;20192;-79
2022/01/30 16:44:41;;;;;;;9.00;8.80;;;4.70;99.90;;;;;;6348884;22;20196;-80
2022/01/30 16:47:28;;;;;;;8.77;8.57;;;4.70;99.90;;;;;;6348567;22;20259;-79
2022/01/30 16:49:56;;;;;;;8.90;8.70;;;4.70;99.90;;;;;;6349169;22;20267;-79
2022/01/30 16:52:24;;;;;;;8.87;8.67;;;4.70;99.90;;;;;;6349106;22;20188;-77
2022/01/30 16:54:54;;;;;;;8.73;8.53;;;4.70;99.90;;;;;;6347999;22;20269;-78
2022/01/30 16:57:22;;;;;;;8.80;8.60;;;4.70;99.90;;;;;;6346436;22;20203;-77
2022/01/30 16:59:49;;;;;;;8.77;8.57;;;4.70;99.90;;;;;;6346761;22;20196;-77
2022/01/30 17:02:19;;;;;;;9.00;8.80;;;4.60;99.90;;;;;;6346747;22;20199;-77
2022/01/30 17:04:47;;;;;;;8.80;8.60;;;4.60;99.90;;;;;;6347609;22;20228;-78
2022/01/30 17:07:18;;;;;;;9.00;8.80;;;4.60;99.90;;;;;;6346747;22;20254;-78
2022/01/30 17:09:46;;;;;;;8.70;8.50;;;4.60;99.90;;;;;;6349635;22;20226;-78
2022/01/30 17:12:19;;;;;;;8.90;8.70;;;4.60;99.90;;;;;;6351501;22;20684;-78
2022/01/30 17:14:50;;;;;;;8.60;8.40;;;4.60;99.90;;;;;;6347664;22;20223;-79
2022/01/30 17:17:21;;;;;;;8.60;8.40;;;4.50;99.90;;;;;;6346465;22;20204;-79
2022/01/30 17:19:49;;;;;;;8.47;8.27;;;4.50;99.90;;;;;;6348492;22;20197;-79
2022/01/30 17:22:17;;;;;;;8.80;8.60;;;4.50;99.90;;;;;;6349983;22;20260;-79
2022/01/30 17:24:47;;;;;;;8.47;8.27;;;4.50;99.90;;;;;;6349590;22;20188;-79
2022/01/30 17:27:14;;;;;;;8.40;8.20;;;4.50;99.90;;;;;;6348473;22;20266;-79
2022/01/30 17:29:42;;;;;;;8.60;8.40;;;4.50;99.90;;;;;;6350243;22;20196;-80
2022/01/30 17:32:10;;;;;;;8.70;8.50;;;4.50;99.90;;;;;;6348280;22;20222;-79
2022/01/30 17:34:39;;;;;;;9.00;8.80;;;4.60;99.90;;;;;;6350550;22;20230;-79
2022/01/30 17:37:07;;;;;;;9.10;8.90;;;4.50;99.90;;;;;;6349648;22;20661;-79
2022/01/30 17:39:35;;;;;;;9.00;8.80;;;4.50;99.90;;;;;;6349643;22;20196;-79
2022/01/30 17:42:06;;;;;;;8.67;8.47;;;4.50;99.90;;;;;;6355246;22;20196;-80
2022/01/30 17:44:34;;;;;;;8.80;8.60;;;4.50;99.90;;;;;;6350521;22;20246;-79
2022/01/30 17:47:02;;;;;;;8.90;8.70;;;4.50;99.90;;;;;;6350253;22;20211;-80
2022/01/30 17:53:18;;;;;;;8.40;8.20;;;4.50;99.90;;;;;;6336307;22;20208;-84
2022/01/30 17:56:02;;;;;;;8.63;8.43;;;4.40;99.90;;;;;;6350431;22;20222;-84
2022/01/30 18:06:57;;;;;;;8.60;8.40;;;4.40;99.90;;;;;;6079683;23;20205;-83
2022/01/30 18:09:57;;;;;;;8.70;8.50;;;4.40;99.90;;;;;;6154912;23;20350;-82
2022/01/30 18:24:39;;;;;;;8.97;8.77;;;4.40;99.90;;;;;;5961712;24;20235;-88
2022/01/30 18:31:19;;;;;;;9.00;8.80;;;4.40;99.90;;;;;;5973240;23;20203;-82
2022/01/30 18:38:32;;;;;;;8.90;8.70;;;4.30;99.90;;;;;;6074389;22;20201;-82
2022/01/30 18:56:11;;;;;;;8.90;8.70;;;4.40;99.90;;;;;;6155242;23;20258;-84
2022/01/30 18:58:52;;;;;;;8.87;8.67;;;4.40;99.90;;;;;;6227248;22;20194;-84
2022/01/30 19:01:37;;;;;;;8.90;8.70;;;4.40;99.90;;;;;;6255058;22;20188;-84
2022/01/30 19:04:38;;;;;;;8.57;8.37;;;4.40;99.90;;;;;;6356873;22;20226;-83
2022/01/30 19:08:04;;;;;;;8.90;8.70;;;4.50;99.90;;;;;;6355796;22;20189;-84
2022/01/30 19:11:45;;;;;;;8.70;8.50;;;4.50;99.90;;;;;;6355736;22;20211;-85
2022/01/30 19:14:21;;;;;;;9.00;8.80;;;4.50;99.90;;;;;;6303712;22;20207;-84
2022/01/30 19:35:21;;;;;;;8.90;8.70;;;4.40;99.90;;;;;;6162754;23;20386;-84
2022/01/30 20:32:56;;;;;;;9.23;8.93;;;4.20;99.90;;;;;;6013153;23;20211;-84
2022/01/30 20:36:07;;;;;;;8.87;8.67;;;4.20;99.90;;;;;;6144745;23;20269;-84
2022/01/30 20:38:59;;;;;;;9.00;8.80;;;4.20;99.90;;;;;;6199004;22;20253;-84
2022/01/30 20:41:53;;;;;;;9.00;8.80;;;4.10;99.90;;;;;;6227218;23;20258;-84
2022/01/30 20:44:44;;;;;;;8.90;8.70;;;4.10;99.90;;;;;;6226317;23;20202;-84
2022/01/30 20:47:32;;;;;;;9.00;8.80;;;4.10;99.90;;;;;;6327227;22;20200;-86
2022/01/30 20:58:12;;;;;;;9.30;9.00;;;4.20;99.90;;;;;;6162567;23;20196;-85
2022/01/30 21:21:09;;;;;;;9.33;9.03;;;4.00;99.90;;;;;;6066765;23;20204;-83
2022/01/30 21:32:18;;;;;;;9.50;9.20;;;3.90;99.90;;;;;;5972430;23;20194;-84
2022/01/30 21:35:50;;;;;;;9.60;9.30;;;4.00;99.90;;;;;;6148861;23;20203;-84
2022/01/30 21:49:30;;;;;;;9.70;9.40;;;3.90;99.90;;;;;;5939338;23;20206;-83
2022/01/30 22:03:34;;;;;;;9.60;9.30;;;3.80;99.90;;;;;;6012502;23;20211;-83
2022/01/30 22:06:20;;;;;;;9.60;9.30;;;3.80;99.90;;;;;;6034373;23;20236;-83
2022/01/30 23:00:11;;;;;;;9.60;9.30;;;3.50;99.90;;;;;;6311023;22;20275;-85
2022/01/30 23:02:58;;;;;;;9.27;8.97;;;3.50;99.90;;;;;;6311645;22;20192;-85
2022/01/30 23:05:53;;;;;;;9.60;9.30;;;3.50;99.90;;;;;;6314591;22;21540;-84
2022/01/30 23:56:17;;;;;;;8.70;8.50;;;2.90;99.90;;;;;;6201055;22;20209;-82
2022/01/30 23:59:07;;;;;;;8.70;8.50;;;2.80;99.90;;;;;;6299855;22;20197;-81
